Weather at Auburn Academy Airport

Public forecast

Using degrees Fahrenheit for public forecast. Weather courtesy of forecast.io.

Closest aviation weather report (METAR) to Auburn Academy Airport

Closest report is Seattle Tacoma International Airport, 12.0 nm (22.2 km) NNW. Retrieved 2021/01/15 22:53 UTC (33 minutes ago):

KSEA 152253Z 21007KT 10SM SCT019 BKN032 11/07 A3040 RMK AO2 SLP303 T01110072

Closest aviation forecast (TAF) to Auburn Academy Airport

Closest forecast is Seattle Tacoma International Airport, 12.0 nm (22.2 km) NNW. Retrieved 2021/01/15 18:27 UTC (5 hours ago):

TAF KSEA 151724Z 1518/1624 04005KT P6SM OVC030 FM152100 23004KT P6SM BKN025 BKN040 FM160000 30004KT P6SM BKN050 FM160300 05003KT P6SM BKN025 FM160900 05003KT 6SM BR BKN025 FM161200 06003KT 6SM BR BKN020